sensor_id;sensor_type;location;lat;lon;timestamp;temperature;humidity
75321;DHT22;63920;52.130;5.584;2023-03-01T00:01:09;1.70;99.90
75321;DHT22;63920;52.130;5.584;2023-03-01T00:03:35;1.70;99.90
75321;DHT22;63920;52.130;5.584;2023-03-01T00:06:02;1.70;99.90
75321;DHT22;63920;52.130;5.584;2023-03-01T00:08:28;1.70;99.90
75321;DHT22;63920;52.130;5.584;2023-03-01T00:11:05;1.70;99.90
75321;DHT22;63920;52.130;5.584;2023-03-01T00:13:33;1.60;99.90
75321;DHT22;63920;52.130;5.584;2023-03-01T00:16:00;1.50;99.90
75321;DHT22;63920;52.130;5.584;2023-03-01T00:18:26;1.40;99.90
75321;DHT22;63920;52.130;5.584;2023-03-01T00:20:53;1.50;99.90
75321;DHT22;63920;52.130;5.584;2023-03-01T00:23:20;1.30;99.90
75321;DHT22;63920;52.130;5.584;2023-03-01T00:25:46;1.30;99.90
75321;DHT22;63920;52.130;5.584;2023-03-01T00:28:11;1.40;99.90
75321;DHT22;63920;52.130;5.584;2023-03-01T00:30:37;1.30;99.90
75321;DHT22;63920;52.130;5.584;2023-03-01T00:33:03;1.30;99.90
75321;DHT22;63920;52.130;5.584;2023-03-01T00:35:28;1.40;99.90
75321;DHT22;63920;52.130;5.584;2023-03-01T00:37:56;1.40;99.90
75321;DHT22;63920;52.130;5.584;2023-03-01T00:40:27;1.40;99.90
75321;DHT22;63920;52.130;5.584;2023-03-01T00:42:53;1.40;99.90
75321;DHT22;63920;52.130;5.584;2023-03-01T00:45:18;1.40;99.90
75321;DHT22;63920;52.130;5.584;2023-03-01T00:47:44;1.30;99.90
75321;DHT22;63920;52.130;5.584;2023-03-01T00:50:10;1.30;99.90
75321;DHT22;63920;52.130;5.584;2023-03-01T00:52:36;1.10;99.90
75321;DHT22;63920;52.130;5.584;2023-03-01T00:55:03;1.10;99.90
75321;DHT22;63920;52.130;5.584;2023-03-01T00:57:29;1.10;99.90
75321;DHT22;63920;52.130;5.584;2023-03-01T00:59:55;1.20;99.90
75321;DHT22;63920;52.130;5.584;2023-03-01T01:02:21;1.20;99.90
75321;DHT22;63920;52.130;5.584;2023-03-01T01:04:47;1.20;99.90
75321;DHT22;63920;52.130;5.584;2023-03-01T01:07:13;1.20;99.90
75321;DHT22;63920;52.130;5.584;2023-03-01T01:09:39;1.10;99.90
75321;DHT22;63920;52.130;5.584;2023-03-01T01:12:05;1.00;99.90
75321;DHT22;63920;52.130;5.584;2023-03-01T01:14:30;1.00;99.90
75321;DHT22;63920;52.130;5.584;2023-03-01T01:16:56;1.10;99.90
75321;DHT22;63920;52.130;5.584;2023-03-01T01:19:22;1.00;99.90
75321;DHT22;63920;52.130;5.584;2023-03-01T01:21:48;0.90;99.90
75321;DHT22;63920;52.130;5.584;2023-03-01T01:24:15;1.00;99.90
75321;DHT22;63920;52.130;5.584;2023-03-01T01:26:42;0.80;99.90
75321;DHT22;63920;52.130;5.584;2023-03-01T01:29:08;1.00;99.90
75321;DHT22;63920;52.130;5.584;2023-03-01T01:31:35;0.80;99.90
75321;DHT22;63920;52.130;5.584;2023-03-01T01:34:04;0.80;99.90
75321;DHT22;63920;52.130;5.584;2023-03-01T01:36:30;0.80;99.90
75321;DHT22;63920;52.130;5.584;2023-03-01T01:38:56;0.90;99.90
75321;DHT22;63920;52.130;5.584;2023-03-01T01:41:23;0.80;99.90
75321;DHT22;63920;52.130;5.584;2023-03-01T01:46:41;1.00;99.90
75321;DHT22;63920;52.130;5.584;2023-03-01T01:49:38;1.00;99.90
75321;DHT22;63920;52.130;5.584;2023-03-01T01:52:22;0.80;99.90
75321;DHT22;63920;52.130;5.584;2023-03-01T01:55:36;0.60;99.90
75321;DHT22;63920;52.130;5.584;2023-03-01T01:57:58;0.80;99.90
75321;DHT22;63920;52.130;5.584;2023-03-01T02:00:28;0.60;99.90
75321;DHT22;63920;52.130;5.584;2023-03-01T02:02:59;0.40;99.90
75321;DHT22;63920;52.130;5.584;2023-03-01T02:05:49;0.30;99.90
75321;DHT22;63920;52.130;5.584;2023-03-01T02:08:18;0.50;99.90
75321;DHT22;63920;52.130;5.584;2023-03-01T02:10:45;0.50;99.90
75321;DHT22;63920;52.130;5.584;2023-03-01T02:13:11;0.70;99.90
75321;DHT22;63920;52.130;5.584;2023-03-01T02:15:38;0.60;99.90
75321;DHT22;63920;52.130;5.584;2023-03-01T02:18:06;0.60;99.90
75321;DHT22;63920;52.130;5.584;2023-03-01T02:20:44;0.60;99.90
75321;DHT22;63920;52.130;5.584;2023-03-01T02:23:14;0.70;99.90
75321;DHT22;63920;52.130;5.584;2023-03-01T02:25:56;0.60;99.90
75321;DHT22;63920;52.130;5.584;2023-03-01T02:30:50;0.60;99.90
75321;DHT22;63920;52.130;5.584;2023-03-01T02:33:36;0.20;99.90
75321;DHT22;63920;52.130;5.584;2023-03-01T02:36:09;0.30;99.90
75321;DHT22;63920;52.130;5.584;2023-03-01T02:38:36;0.30;99.90
75321;DHT22;63920;52.130;5.584;2023-03-01T02:41:03;0.30;99.90
75321;DHT22;63920;52.130;5.584;2023-03-01T02:43:32;0.50;99.90
75321;DHT22;63920;52.130;5.584;2023-03-01T02:46:04;0.60;99.90
75321;DHT22;63920;52.130;5.584;2023-03-01T02:48:40;0.60;99.90
75321;DHT22;63920;52.130;5.584;2023-03-01T02:56:51;0.60;99.90
75321;DHT22;63920;52.130;5.584;2023-03-01T02:59:24;0.50;99.90
75321;DHT22;63920;52.130;5.584;2023-03-01T03:01:50;0.40;99.90
75321;DHT22;63920;52.130;5.584;2023-03-01T03:04:17;0.40;99.90
75321;DHT22;63920;52.130;5.584;2023-03-01T03:06:46;0.30;99.90
75321;DHT22;63920;52.130;5.584;2023-03-01T03:09:12;0.30;99.90
75321;DHT22;63920;52.130;5.584;2023-03-01T03:11:38;0.40;99.90
75321;DHT22;63920;52.130;5.584;2023-03-01T03:14:07;0.70;99.90
75321;DHT22;63920;52.130;5.584;2023-03-01T03:16:43;0.40;99.90
75321;DHT22;63920;52.130;5.584;2023-03-01T03:19:09;0.40;99.90
75321;DHT22;63920;52.130;5.584;2023-03-01T03:21:35;0.40;99.90
75321;DHT22;63920;52.130;5.584;2023-03-01T03:24:01;0.50;99.90
75321;DHT22;63920;52.130;5.584;2023-03-01T03:26:27;0.50;99.90
75321;DHT22;63920;52.130;5.584;2023-03-01T03:28:52;0.30;99.90
75321;DHT22;63920;52.130;5.584;2023-03-01T03:31:18;0.30;99.90
75321;DHT22;63920;52.130;5.584;2023-03-01T03:33:43;0.30;99.90
75321;DHT22;63920;52.130;5.584;2023-03-01T03:36:09;0.20;99.90
75321;DHT22;63920;52.130;5.584;2023-03-01T03:38:39;0.20;99.90
75321;DHT22;63920;52.130;5.584;2023-03-01T03:41:06;0.30;99.90
75321;DHT22;63920;52.130;5.584;2023-03-01T03:43:35;0.30;99.90
75321;DHT22;63920;52.130;5.584;2023-03-01T03:46:01;0.30;99.90
75321;DHT22;63920;52.130;5.584;2023-03-01T03:48:33;0.30;99.90
75321;DHT22;63920;52.130;5.584;2023-03-01T03:50:59;0.10;99.90
75321;DHT22;63920;52.130;5.584;2023-03-01T03:53:26;0.00;99.90
75321;DHT22;63920;52.130;5.584;2023-03-01T03:55:53;0.10;99.90
75321;DHT22;63920;52.130;5.584;2023-03-01T03:58:21;-0.30;99.90
75321;DHT22;63920;52.130;5.584;2023-03-01T04:00:49;-0.40;99.90
75321;DHT22;63920;52.130;5.584;2023-03-01T04:03:16;-0.20;99.90
75321;DHT22;63920;52.130;5.584;2023-03-01T04:05:42;-0.20;99.90
75321;DHT22;63920;52.130;5.584;2023-03-01T04:08:08;-0.10;99.90
75321;DHT22;63920;52.130;5.584;2023-03-01T04:10:35;0.00;99.90
75321;DHT22;63920;52.130;5.584;2023-03-01T04:13:02;0.00;99.90
75321;DHT22;63920;52.130;5.584;2023-03-01T04:15:28;0.00;99.90
75321;DHT22;63920;52.130;5.584;2023-03-01T04:17:54;0.00;99.90
75321;DHT22;63920;52.130;5.584;2023-03-01T04:20:22;0.10;99.90
75321;DHT22;63920;52.130;5.584;2023-03-01T04:22:56;0.10;99.90
75321;DHT22;63920;52.130;5.584;2023-03-01T04:25:23;0.10;99.90
75321;DHT22;63920;52.130;5.584;2023-03-01T04:27:49;0.00;99.90
75321;DHT22;63920;52.130;5.584;2023-03-01T04:30:15;-0.10;99.90
75321;DHT22;63920;52.130;5.584;2023-03-01T04:32:41;-0.20;99.90
75321;DHT22;63920;52.130;5.584;2023-03-01T04:35:07;-0.30;99.90
75321;DHT22;63920;52.130;5.584;2023-03-01T04:37:32;-0.30;99.90
75321;DHT22;63920;52.130;5.584;2023-03-01T04:40:01;-0.30;99.90
75321;DHT22;63920;52.130;5.584;2023-03-01T04:42:37;-0.10;99.90
75321;DHT22;63920;52.130;5.584;2023-03-01T04:45:03;-0.10;99.90
75321;DHT22;63920;52.130;5.584;2023-03-01T04:47:41;0.00;99.90
75321;DHT22;63920;52.130;5.584;2023-03-01T04:50:08;0.10;99.90
75321;DHT22;63920;52.130;5.584;2023-03-01T04:52:35;0.00;99.90
75321;DHT22;63920;52.130;5.584;2023-03-01T04:55:01;-0.10;99.90
75321;DHT22;63920;52.130;5.584;2023-03-01T04:57:30;-0.20;99.90
75321;DHT22;63920;52.130;5.584;2023-03-01T04:59:55;-0.20;99.90
75321;DHT22;63920;52.130;5.584;2023-03-01T05:02:21;-0.30;99.90
75321;DHT22;63920;52.130;5.584;2023-03-01T05:04:47;-0.30;99.90
75321;DHT22;63920;52.130;5.584;2023-03-01T05:07:12;-0.30;99.90
75321;DHT22;63920;52.130;5.584;2023-03-01T05:09:45;-0.30;99.90
75321;DHT22;63920;52.130;5.584;2023-03-01T05:12:11;-0.40;99.90
75321;DHT22;63920;52.130;5.584;2023-03-01T05:14:37;-0.30;99.90
75321;DHT22;63920;52.130;5.584;2023-03-01T05:17:04;-0.40;99.90
75321;DHT22;63920;52.130;5.584;2023-03-01T05:19:30;-0.40;99.90
75321;DHT22;63920;52.130;5.584;2023-03-01T05:21:59;-0.50;99.90
75321;DHT22;63920;52.130;5.584;2023-03-01T05:24:28;-0.30;99.90
75321;DHT22;63920;52.130;5.584;2023-03-01T05:26:54;-0.50;99.90
75321;DHT22;63920;52.130;5.584;2023-03-01T05:29:22;-0.40;99.90
75321;DHT22;63920;52.130;5.584;2023-03-01T05:31:54;-0.50;99.90
75321;DHT22;63920;52.130;5.584;2023-03-01T05:34:31;-0.40;99.90
75321;DHT22;63920;52.130;5.584;2023-03-01T05:36:57;-0.50;99.90
75321;DHT22;63920;52.130;5.584;2023-03-01T05:39:25;-0.50;99.90
75321;DHT22;63920;52.130;5.584;2023-03-01T05:41:56;-0.50;99.90
75321;DHT22;63920;52.130;5.584;2023-03-01T05:44:22;-0.60;99.90
75321;DHT22;63920;52.130;5.584;2023-03-01T05:46:48;-0.60;99.90
75321;DHT22;63920;52.130;5.584;2023-03-01T05:49:15;-0.60;99.90
75321;DHT22;63920;52.130;5.584;2023-03-01T05:51:42;-0.70;99.90
75321;DHT22;63920;52.130;5.584;2023-03-01T05:54:08;-0.70;99.90
75321;DHT22;63920;52.130;5.584;2023-03-01T05:56:35;-0.70;99.90
75321;DHT22;63920;52.130;5.584;2023-03-01T05:59:02;-0.70;99.90
75321;DHT22;63920;52.130;5.584;2023-03-01T06:01:28;-0.70;99.90
75321;DHT22;63920;52.130;5.584;2023-03-01T06:03:54;-0.70;99.90
75321;DHT22;63920;52.130;5.584;2023-03-01T06:06:21;-0.70;99.90
75321;DHT22;63920;52.130;5.584;2023-03-01T06:08:47;-0.70;99.90
75321;DHT22;63920;52.130;5.584;2023-03-01T06:11:12;-0.70;99.90
75321;DHT22;63920;52.130;5.584;2023-03-01T06:13:38;-0.80;99.90
75321;DHT22;63920;52.130;5.584;2023-03-01T06:16:06;-0.70;99.90
75321;DHT22;63920;52.130;5.584;2023-03-01T06:18:32;-0.80;99.90
75321;DHT22;63920;52.130;5.584;2023-03-01T06:20:58;-0.80;99.90
75321;DHT22;63920;52.130;5.584;2023-03-01T06:23:24;-0.80;99.90
75321;DHT22;63920;52.130;5.584;2023-03-01T06:25:50;-0.90;99.90
75321;DHT22;63920;52.130;5.584;2023-03-01T06:28:15;-0.80;99.90
75321;DHT22;63920;52.130;5.584;2023-03-01T06:30:41;-0.80;99.90
75321;DHT22;63920;52.130;5.584;2023-03-01T06:33:07;-0.80;99.90
75321;DHT22;63920;52.130;5.584;2023-03-01T06:35:32;-0.80;99.90
75321;DHT22;63920;52.130;5.584;2023-03-01T06:37:59;-0.80;99.90
75321;DHT22;63920;52.130;5.584;2023-03-01T06:40:26;-0.80;99.90
75321;DHT22;63920;52.130;5.584;2023-03-01T06:42:51;-0.90;99.90
75321;DHT22;63920;52.130;5.584;2023-03-01T06:45:18;-0.90;99.90
75321;DHT22;63920;52.130;5.584;2023-03-01T06:47:44;-0.80;99.90
75321;DHT22;63920;52.130;5.584;2023-03-01T06:50:10;-0.80;99.90
75321;DHT22;63920;52.130;5.584;2023-03-01T06:52:36;-0.80;99.90
75321;DHT22;63920;52.130;5.584;2023-03-01T06:55:02;-0.80;99.90
75321;DHT22;63920;52.130;5.584;2023-03-01T06:57:28;-0.80;99.90
75321;DHT22;63920;52.130;5.584;2023-03-01T06:59:53;-0.80;99.90
75321;DHT22;63920;52.130;5.584;2023-03-01T07:02:19;-0.80;99.90
75321;DHT22;63920;52.130;5.584;2023-03-01T07:04:45;-0.80;99.90
75321;DHT22;63920;52.130;5.584;2023-03-01T07:07:11;-0.80;99.90
75321;DHT22;63920;52.130;5.584;2023-03-01T07:09:36;-0.80;99.90
75321;DHT22;63920;52.130;5.584;2023-03-01T07:12:02;-0.80;99.90
75321;DHT22;63920;52.130;5.584;2023-03-01T07:14:28;-0.70;99.90
75321;DHT22;63920;52.130;5.584;2023-03-01T07:16:53;-0.70;99.90
75321;DHT22;63920;52.130;5.584;2023-03-01T07:19:19;-0.60;99.90
75321;DHT22;63920;52.130;5.584;2023-03-01T07:21:45;-0.60;99.90
75321;DHT22;63920;52.130;5.584;2023-03-01T07:24:10;-0.60;99.90
75321;DHT22;63920;52.130;5.584;2023-03-01T07:26:37;-0.50;99.90
75321;DHT22;63920;52.130;5.584;2023-03-01T07:29:03;-0.50;99.90
75321;DHT22;63920;52.130;5.584;2023-03-01T07:31:29;-0.40;99.90
75321;DHT22;63920;52.130;5.584;2023-03-01T07:33:56;-0.40;99.90
75321;DHT22;63920;52.130;5.584;2023-03-01T07:36:22;-0.30;99.90
75321;DHT22;63920;52.130;5.584;2023-03-01T07:38:48;-0.20;99.90
75321;DHT22;63920;52.130;5.584;2023-03-01T07:41:14;-0.10;99.90
75321;DHT22;63920;52.130;5.584;2023-03-01T07:43:40;0.00;99.90
75321;DHT22;63920;52.130;5.584;2023-03-01T07:46:05;0.10;99.90
75321;DHT22;63920;52.130;5.584;2023-03-01T07:48:32;0.20;99.90
75321;DHT22;63920;52.130;5.584;2023-03-01T07:51:03;0.20;99.90
75321;DHT22;63920;52.130;5.584;2023-03-01T07:53:29;0.30;99.90
75321;DHT22;63920;52.130;5.584;2023-03-01T07:56:13;0.40;99.90
75321;DHT22;63920;52.130;5.584;2023-03-01T07:58:43;0.50;99.90
75321;DHT22;63920;52.130;5.584;2023-03-01T08:01:11;0.60;99.90
75321;DHT22;63920;52.130;5.584;2023-03-01T08:03:37;0.60;99.90
75321;DHT22;63920;52.130;5.584;2023-03-01T08:06:05;0.90;99.90
75321;DHT22;63920;52.130;5.584;2023-03-01T08:08:31;1.00;99.90
75321;DHT22;63920;52.130;5.584;2023-03-01T08:10:59;1.10;99.90
75321;DHT22;63920;52.130;5.584;2023-03-01T08:13:25;1.20;99.90
75321;DHT22;63920;52.130;5.584;2023-03-01T08:15:51;1.40;99.90
75321;DHT22;63920;52.130;5.584;2023-03-01T08:18:20;1.50;99.90
75321;DHT22;63920;52.130;5.584;2023-03-01T08:20:47;1.60;99.90
75321;DHT22;63920;52.130;5.584;2023-03-01T08:23:13;1.70;99.90
75321;DHT22;63920;52.130;5.584;2023-03-01T08:25:39;1.80;99.90
75321;DHT22;63920;52.130;5.584;2023-03-01T08:28:05;1.90;99.90
75321;DHT22;63920;52.130;5.584;2023-03-01T08:30:31;2.00;99.90
75321;DHT22;63920;52.130;5.584;2023-03-01T08:32:57;2.10;99.90
75321;DHT22;63920;52.130;5.584;2023-03-01T08:35:23;2.20;99.90
75321;DHT22;63920;52.130;5.584;2023-03-01T08:37:48;2.20;99.90
75321;DHT22;63920;52.130;5.584;2023-03-01T08:40:14;2.30;99.90
75321;DHT22;63920;52.130;5.584;2023-03-01T08:42:41;2.30;99.90
75321;DHT22;63920;52.130;5.584;2023-03-01T08:45:09;2.40;99.90
75321;DHT22;63920;52.130;5.584;2023-03-01T08:47:34;2.50;99.90
75321;DHT22;63920;52.130;5.584;2023-03-01T08:50:00;2.60;99.90
75321;DHT22;63920;52.130;5.584;2023-03-01T08:52:26;2.60;99.90
75321;DHT22;63920;52.130;5.584;2023-03-01T08:54:52;2.80;99.90
75321;DHT22;63920;52.130;5.584;2023-03-01T08:57:18;2.80;99.90
75321;DHT22;63920;52.130;5.584;2023-03-01T08:59:44;2.90;99.90
75321;DHT22;63920;52.130;5.584;2023-03-01T09:02:12;3.00;99.90
75321;DHT22;63920;52.130;5.584;2023-03-01T09:04:38;3.10;99.90
75321;DHT22;63920;52.130;5.584;2023-03-01T09:07:04;3.40;99.90
75321;DHT22;63920;52.130;5.584;2023-03-01T09:09:30;3.40;99.90
75321;DHT22;63920;52.130;5.584;2023-03-01T09:11:55;3.40;99.90
75321;DHT22;63920;52.130;5.584;2023-03-01T09:14:21;3.60;99.90
75321;DHT22;63920;52.130;5.584;2023-03-01T09:16:47;3.70;99.90
75321;DHT22;63920;52.130;5.584;2023-03-01T09:19:13;3.90;99.90
75321;DHT22;63920;52.130;5.584;2023-03-01T09:21:39;4.00;99.90
75321;DHT22;63920;52.130;5.584;2023-03-01T09:24:05;4.10;99.90
75321;DHT22;63920;52.130;5.584;2023-03-01T09:26:31;4.20;99.90
75321;DHT22;63920;52.130;5.584;2023-03-01T09:28:56;4.30;99.90
75321;DHT22;63920;52.130;5.584;2023-03-01T09:31:24;4.50;99.90
75321;DHT22;63920;52.130;5.584;2023-03-01T09:33:51;4.50;99.90
75321;DHT22;63920;52.130;5.584;2023-03-01T09:36:22;4.80;99.90
75321;DHT22;63920;52.130;5.584;2023-03-01T09:38:48;4.60;99.90
75321;DHT22;63920;52.130;5.584;2023-03-01T09:46:13;4.90;99.90
75321;DHT22;63920;52.130;5.584;2023-03-01T09:48:49;5.00;99.90
75321;DHT22;63920;52.130;5.584;2023-03-01T09:51:34;5.10;99.90
75321;DHT22;63920;52.130;5.584;2023-03-01T09:54:04;5.10;99.90
75321;DHT22;63920;52.130;5.584;2023-03-01T09:56:40;5.10;99.90
75321;DHT22;63920;52.130;5.584;2023-03-01T09:59:25;5.20;99.90
75321;DHT22;63920;52.130;5.584;2023-03-01T10:02:05;5.20;99.90
75321;DHT22;63920;52.130;5.584;2023-03-01T10:04:57;5.20;99.90
75321;DHT22;63920;52.130;5.584;2023-03-01T10:10:26;5.30;99.90
75321;DHT22;63920;52.130;5.584;2023-03-01T10:12:53;5.40;99.90
75321;DHT22;63920;52.130;5.584;2023-03-01T10:16:38;5.40;99.90
75321;DHT22;63920;52.130;5.584;2023-03-01T10:18:30;5.50;99.90
75321;DHT22;63920;52.130;5.584;2023-03-01T10:21:16;5.60;99.90
75321;DHT22;63920;52.130;5.584;2023-03-01T10:23:43;5.70;99.90
75321;DHT22;63920;52.130;5.584;2023-03-01T10:31:44;5.90;99.90
75321;DHT22;63920;52.130;5.584;2023-03-01T10:34:17;6.00;99.90
75321;DHT22;63920;52.130;5.584;2023-03-01T10:36:46;6.10;99.90
75321;DHT22;63920;52.130;5.584;2023-03-01T10:39:23;6.10;99.90
75321;DHT22;63920;52.130;5.584;2023-03-01T10:42:01;6.00;99.90
75321;DHT22;63920;52.130;5.584;2023-03-01T10:50:31;6.30;97.80
75321;DHT22;63920;52.130;5.584;2023-03-01T10:52:59;6.30;96.20
75321;DHT22;63920;52.130;5.584;2023-03-01T10:55:33;6.30;99.90
75321;DHT22;63920;52.130;5.584;2023-03-01T10:58:09;6.30;94.20
75321;DHT22;63920;52.130;5.584;2023-03-01T11:03:18;6.40;95.40
75321;DHT22;63920;52.130;5.584;2023-03-01T11:14:05;6.50;94.40
75321;DHT22;63920;52.130;5.584;2023-03-01T11:16:35;6.60;95.30
75321;DHT22;63920;52.130;5.584;2023-03-01T11:24:17;6.70;94.80
75321;DHT22;63920;52.130;5.584;2023-03-01T11:26:50;6.60;98.60
75321;DHT22;63920;52.130;5.584;2023-03-01T11:29:26;6.70;99.60
75321;DHT22;63920;52.130;5.584;2023-03-01T11:31:55;7.10;96.50
75321;DHT22;63920;52.130;5.584;2023-03-01T11:37:26;6.90;95.60
75321;DHT22;63920;52.130;5.584;2023-03-01T11:45:23;7.10;92.30
75321;DHT22;63920;52.130;5.584;2023-03-01T11:47:59;7.10;95.50
75321;DHT22;63920;52.130;5.584;2023-03-01T12:10:33;7.40;89.00
75321;DHT22;63920;52.130;5.584;2023-03-01T12:14:10;7.30;85.40
75321;DHT22;63920;52.130;5.584;2023-03-01T12:19:10;7.50;79.80
75321;DHT22;63920;52.130;5.584;2023-03-01T12:32:44;7.70;84.70
75321;DHT22;63920;52.130;5.584;2023-03-01T12:35:39;7.70;77.40
75321;DHT22;63920;52.130;5.584;2023-03-01T12:41:14;7.80;83.00
75321;DHT22;63920;52.130;5.584;2023-03-01T12:47:11;7.90;77.00
75321;DHT22;63920;52.130;5.584;2023-03-01T12:49:48;8.00;87.80
75321;DHT22;63920;52.130;5.584;2023-03-01T12:52:28;8.00;82.60
75321;DHT22;63920;52.130;5.584;2023-03-01T12:55:01;8.00;80.20
75321;DHT22;63920;52.130;5.584;2023-03-01T12:57:38;8.00;69.60
75321;DHT22;63920;52.130;5.584;2023-03-01T13:00:21;8.00;69.70
75321;DHT22;63920;52.130;5.584;2023-03-01T13:03:11;8.00;67.50
75321;DHT22;63920;52.130;5.584;2023-03-01T13:05:52;8.00;68.50
75321;DHT22;63920;52.130;5.584;2023-03-01T13:08:33;8.10;69.20
75321;DHT22;63920;52.130;5.584;2023-03-01T13:11:03;8.10;64.00
75321;DHT22;63920;52.130;5.584;2023-03-01T13:13:30;8.10;60.70
75321;DHT22;63920;52.130;5.584;2023-03-01T13:15:56;8.10;64.70
75321;DHT22;63920;52.130;5.584;2023-03-01T13:20:49;8.10;67.80
75321;DHT22;63920;52.130;5.584;2023-03-01T13:26:03;8.00;69.40
75321;DHT22;63920;52.130;5.584;2023-03-01T13:34:03;8.10;81.50
75321;DHT22;63920;52.130;5.584;2023-03-01T13:39:47;8.00;67.20
75321;DHT22;63920;52.130;5.584;2023-03-01T13:41:50;8.10;66.90
75321;DHT22;63920;52.130;5.584;2023-03-01T13:44:37;8.10;66.10
75321;DHT22;63920;52.130;5.584;2023-03-01T13:47:15;8.10;65.60
75321;DHT22;63920;52.130;5.584;2023-03-01T13:55:01;8.20;66.30
75321;DHT22;63920;52.130;5.584;2023-03-01T13:57:34;8.30;58.70
75321;DHT22;63920;52.130;5.584;2023-03-01T14:00:02;8.30;62.60
75321;DHT22;63920;52.130;5.584;2023-03-01T14:02:30;8.30;60.50
75321;DHT22;63920;52.130;5.584;2023-03-01T14:04:57;8.30;65.20
75321;DHT22;63920;52.130;5.584;2023-03-01T14:07:24;8.30;65.60
75321;DHT22;63920;52.130;5.584;2023-03-01T14:09:55;8.30;67.40
75321;DHT22;63920;52.130;5.584;2023-03-01T14:12:52;8.30;64.20
75321;DHT22;63920;52.130;5.584;2023-03-01T14:15:31;8.30;64.10
75321;DHT22;63920;52.130;5.584;2023-03-01T14:18:26;8.30;65.50
75321;DHT22;63920;52.130;5.584;2023-03-01T14:20:54;8.30;66.30
75321;DHT22;63920;52.130;5.584;2023-03-01T14:23:23;8.30;61.10
75321;DHT22;63920;52.130;5.584;2023-03-01T14:25:54;8.30;70.20
75321;DHT22;63920;52.130;5.584;2023-03-01T14:30:49;8.30;69.20
75321;DHT22;63920;52.130;5.584;2023-03-01T14:33:28;8.20;65.10
75321;DHT22;63920;52.130;5.584;2023-03-01T14:36:07;8.30;67.10
75321;DHT22;63920;52.130;5.584;2023-03-01T14:38:37;8.30;72.80
75321;DHT22;63920;52.130;5.584;2023-03-01T14:41:11;8.30;65.60
75321;DHT22;63920;52.130;5.584;2023-03-01T14:43:47;8.30;71.60
75321;DHT22;63920;52.130;5.584;2023-03-01T14:48:54;8.30;74.30
75321;DHT22;63920;52.130;5.584;2023-03-01T14:51:21;8.30;78.00
75321;DHT22;63920;52.130;5.584;2023-03-01T14:53:47;8.30;76.70
75321;DHT22;63920;52.130;5.584;2023-03-01T14:56:15;8.40;75.00
75321;DHT22;63920;52.130;5.584;2023-03-01T14:58:43;8.30;75.20
75321;DHT22;63920;52.130;5.584;2023-03-01T15:01:16;8.30;73.00
75321;DHT22;63920;52.130;5.584;2023-03-01T15:03:44;8.30;68.80
75321;DHT22;63920;52.130;5.584;2023-03-01T15:06:14;8.30;70.40
75321;DHT22;63920;52.130;5.584;2023-03-01T15:08:45;8.20;82.60
75321;DHT22;63920;52.130;5.584;2023-03-01T15:11:21;8.10;70.90
75321;DHT22;63920;52.130;5.584;2023-03-01T15:13:50;8.10;81.60
75321;DHT22;63920;52.130;5.584;2023-03-01T15:16:19;8.10;75.00
75321;DHT22;63920;52.130;5.584;2023-03-01T15:18:52;8.00;80.40
75321;DHT22;63920;52.130;5.584;2023-03-01T15:21:19;8.10;80.60
75321;DHT22;63920;52.130;5.584;2023-03-01T15:23:55;8.00;80.20
75321;DHT22;63920;52.130;5.584;2023-03-01T15:26:31;7.90;80.50
75321;DHT22;63920;52.130;5.584;2023-03-01T15:28:59;7.90;78.40
75321;DHT22;63920;52.130;5.584;2023-03-01T15:31:28;8.00;85.10
75321;DHT22;63920;52.130;5.584;2023-03-01T15:34:50;8.00;85.90
75321;DHT22;63920;52.130;5.584;2023-03-01T15:36:59;7.90;71.90
75321;DHT22;63920;52.130;5.584;2023-03-01T15:39:40;8.10;90.60
75321;DHT22;63920;52.130;5.584;2023-03-01T15:47:48;7.80;89.50
75321;DHT22;63920;52.130;5.584;2023-03-01T15:50:34;7.80;92.60
75321;DHT22;63920;52.130;5.584;2023-03-01T15:53:01;7.80;89.00
75321;DHT22;63920;52.130;5.584;2023-03-01T15:55:31;7.80;92.70
75321;DHT22;63920;52.130;5.584;2023-03-01T15:58:13;7.70;90.20
75321;DHT22;63920;52.130;5.584;2023-03-01T16:00:41;7.70;90.10
75321;DHT22;63920;52.130;5.584;2023-03-01T16:03:07;7.70;91.90
75321;DHT22;63920;52.130;5.584;2023-03-01T16:05:35;7.70;92.70
75321;DHT22;63920;52.130;5.584;2023-03-01T16:08:02;7.60;91.80
75321;DHT22;63920;52.130;5.584;2023-03-01T16:10:28;7.50;90.70
75321;DHT22;63920;52.130;5.584;2023-03-01T16:12:54;7.60;89.90
75321;DHT22;63920;52.130;5.584;2023-03-01T16:15:20;7.60;94.00
75321;DHT22;63920;52.130;5.584;2023-03-01T16:17:47;7.50;90.60
75321;DHT22;63920;52.130;5.584;2023-03-01T16:20:13;7.50;83.70
75321;DHT22;63920;52.130;5.584;2023-03-01T16:22:43;7.50;88.60
75321;DHT22;63920;52.130;5.584;2023-03-01T16:25:19;7.40;88.60
75321;DHT22;63920;52.130;5.584;2023-03-01T16:27:46;7.30;90.50
75321;DHT22;63920;52.130;5.584;2023-03-01T16:30:14;7.30;91.90
75321;DHT22;63920;52.130;5.584;2023-03-01T16:32:41;7.30;90.90
75321;DHT22;63920;52.130;5.584;2023-03-01T16:35:07;7.40;95.80
75321;DHT22;63920;52.130;5.584;2023-03-01T16:37:34;7.30;93.00
75321;DHT22;63920;52.130;5.584;2023-03-01T16:40:00;7.30;93.80
75321;DHT22;63920;52.130;5.584;2023-03-01T16:42:28;7.30;94.90
75321;DHT22;63920;52.130;5.584;2023-03-01T16:44:58;7.30;97.60
75321;DHT22;63920;52.130;5.584;2023-03-01T16:47:23;7.10;99.90
75321;DHT22;63920;52.130;5.584;2023-03-01T16:49:53;7.20;99.00
75321;DHT22;63920;52.130;5.584;2023-03-01T16:52:19;7.10;98.50
75321;DHT22;63920;52.130;5.584;2023-03-01T16:54:45;7.10;97.90
75321;DHT22;63920;52.130;5.584;2023-03-01T16:57:11;7.00;98.50
75321;DHT22;63920;52.130;5.584;2023-03-01T16:59:36;7.00;98.80
75321;DHT22;63920;52.130;5.584;2023-03-01T17:02:03;6.90;99.20
75321;DHT22;63920;52.130;5.584;2023-03-01T17:04:29;6.80;99.60
75321;DHT22;63920;52.130;5.584;2023-03-01T17:06:55;6.80;99.30
75321;DHT22;63920;52.130;5.584;2023-03-01T17:09:20;6.80;98.90
75321;DHT22;63920;52.130;5.584;2023-03-01T17:11:48;6.80;99.80
75321;DHT22;63920;52.130;5.584;2023-03-01T17:14:14;6.60;99.30
75321;DHT22;63920;52.130;5.584;2023-03-01T17:16:42;6.60;99.90
75321;DHT22;63920;52.130;5.584;2023-03-01T17:19:07;6.50;99.90
75321;DHT22;63920;52.130;5.584;2023-03-01T17:21:33;6.50;99.90
75321;DHT22;63920;52.130;5.584;2023-03-01T17:23:59;6.50;99.90
75321;DHT22;63920;52.130;5.584;2023-03-01T17:26:25;6.50;99.90
75321;DHT22;63920;52.130;5.584;2023-03-01T17:28:50;6.30;99.90
75321;DHT22;63920;52.130;5.584;2023-03-01T17:31:18;6.40;99.90
75321;DHT22;63920;52.130;5.584;2023-03-01T17:33:44;6.30;99.90
75321;DHT22;63920;52.130;5.584;2023-03-01T17:36:10;6.30;99.90
75321;DHT22;63920;52.130;5.584;2023-03-01T17:38:35;6.20;99.90
75321;DHT22;63920;52.130;5.584;2023-03-01T17:41:02;6.20;99.90
75321;DHT22;63920;52.130;5.584;2023-03-01T17:43:28;6.20;99.90
75321;DHT22;63920;52.130;5.584;2023-03-01T17:45:55;6.20;99.90
75321;DHT22;63920;52.130;5.584;2023-03-01T17:48:20;6.10;99.90
75321;DHT22;63920;52.130;5.584;2023-03-01T17:50:46;6.00;99.90
75321;DHT22;63920;52.130;5.584;2023-03-01T17:53:12;6.00;99.90
75321;DHT22;63920;52.130;5.584;2023-03-01T17:55:39;6.00;99.90
75321;DHT22;63920;52.130;5.584;2023-03-01T17:58:06;6.00;99.90
75321;DHT22;63920;52.130;5.584;2023-03-01T18:00:33;5.90;99.90